createdAt,value
2022-10-21T00:00:50.876Z,99593.34
2022-10-21T00:03:18.567Z,99587.03
2022-10-21T00:05:45.747Z,99588.88
2022-10-21T00:08:13.111Z,99595.66
2022-10-21T00:10:43.001Z,99597.34
2022-10-21T00:13:09.920Z,99594.34
2022-10-21T00:15:39.076Z,99589.22
2022-10-21T00:18:06.128Z,99592.84
2022-10-21T00:20:35.957Z,99588.69
2022-10-21T00:23:06.356Z,99583.72
2022-10-21T00:25:33.472Z,99570.44
2022-10-21T00:28:00.327Z,99571.09
2022-10-21T00:30:27.386Z,99566.75
2022-10-21T00:32:55.672Z,99568.59
2022-10-21T00:35:27.764Z,99565.78
2022-10-21T00:37:54.718Z,99570.28
2022-10-21T00:40:21.549Z,99562.13
2022-10-21T00:42:51.195Z,99554.16
2022-10-21T00:45:32.075Z,99548.47
2022-10-21T00:48:08.821Z,99539.53
2022-10-21T00:50:43.762Z,99532.22
2022-10-21T00:53:14.516Z,99534.41
2022-10-21T00:55:47.243Z,99540.38
2022-10-21T00:58:16.072Z,99535.88
2022-10-21T01:00:45.866Z,99541.34
2022-10-21T01:03:12.912Z,99542.53
2022-10-21T01:05:40.806Z,99545.53
2022-10-21T01:08:07.772Z,99547.03
2022-10-21T01:10:35.820Z,99563.81
2022-10-21T01:13:18.992Z,99566.13
2022-10-21T01:16:03.607Z,99570.47
2022-10-21T01:18:54.927Z,99563.97
2022-10-21T01:21:46.939Z,99559.81
2022-10-21T01:24:36.111Z,99558.00
2022-10-21T01:27:25.217Z,99564.50
2022-10-21T01:30:10.914Z,99560.81
2022-10-21T01:32:56.223Z,99563.47
2022-10-21T01:35:23.320Z,99563.16
2022-10-21T01:38:10.442Z,99565.47
2022-10-21T01:40:59.346Z,99560.00
2022-10-21T01:43:44.897Z,99557.19
2022-10-21T01:46:16.422Z,99563.31
2022-10-21T01:48:51.518Z,99559.50
2022-10-21T01:51:19.467Z,99554.19
2022-10-21T01:53:53.076Z,99550.03
2022-10-21T01:56:21.458Z,99556.19
2022-10-21T01:58:52.052Z,99558.16
2022-10-21T02:01:19.606Z,99552.19
2022-10-21T02:03:49.714Z,99554.84
2022-10-21T02:06:19.360Z,99555.66
2022-10-21T02:08:49.479Z,99554.50
2022-10-21T02:11:19.077Z,99551.69
2022-10-21T02:13:53.324Z,99561.66
2022-10-21T02:16:24.469Z,99559.81
2022-10-21T02:19:16.415Z,99567.47
2022-10-21T02:21:47.169Z,99563.00
2022-10-21T02:24:22.569Z,99572.94
2022-10-21T02:26:49.634Z,99572.47
2022-10-21T02:29:22.167Z,99574.09
2022-10-21T02:32:26.990Z,99583.09
2022-10-21T02:35:09.387Z,99576.09
2022-10-21T02:37:49.088Z,99581.06
2022-10-21T02:40:31.434Z,99576.59
2022-10-21T02:43:03.353Z,99586.38
2022-10-21T02:45:30.686Z,99593.69
2022-10-21T02:47:57.559Z,99596.53
2022-10-21T02:50:24.464Z,99588.38
2022-10-21T02:52:51.503Z,99586.38
2022-10-21T02:55:18.523Z,99587.06
2022-10-21T02:57:47.708Z,99585.41
2022-10-21T03:00:15.059Z,99577.25
2022-10-21T03:05:28.874Z,99581.91
2022-10-21T03:07:55.803Z,99570.63
2022-10-21T03:10:22.703Z,99569.63
2022-10-21T03:12:50.361Z,99574.09
2022-10-21T03:15:18.092Z,99565.13
2022-10-21T03:17:44.980Z,99565.47
2022-10-21T03:20:12.200Z,99563.81
2022-10-21T03:22:39.201Z,99565.66
2022-10-21T03:25:06.940Z,99564.81
2022-10-21T03:27:37.972Z,99563.00
2022-10-21T03:30:06.379Z,99567.16
2022-10-21T03:32:33.779Z,99563.00
2022-10-21T03:35:00.727Z,99556.84
2022-10-21T03:37:27.921Z,99561.66
2022-10-21T03:39:54.810Z,99564.16
2022-10-21T03:42:21.715Z,99565.66
2022-10-21T03:44:49.139Z,99567.28
2022-10-21T03:47:16.443Z,99570.13
2022-10-21T03:49:44.584Z,99567.78
2022-10-21T03:52:14.679Z,99569.97
2022-10-21T03:54:42.890Z,99576.91
2022-10-21T03:57:11.780Z,99570.63
2022-10-21T03:59:38.710Z,99577.09
2022-10-21T04:02:05.785Z,99576.75
2022-10-21T04:04:32.929Z,99576.59
2022-10-21T04:06:59.977Z,99582.25
2022-10-21T04:09:32.467Z,99579.59
2022-10-21T04:12:02.015Z,99581.41
2022-10-21T04:14:31.641Z,99577.41
2022-10-21T04:17:06.863Z,99588.53
2022-10-21T04:19:34.290Z,99587.91
2022-10-21T04:22:01.268Z,99584.56
2022-10-21T04:24:28.179Z,99592.03
2022-10-21T04:26:55.184Z,99580.41
2022-10-21T04:29:22.272Z,99593.03
2022-10-21T04:31:49.268Z,99584.72
2022-10-21T04:34:16.358Z,99590.69
2022-10-21T04:36:43.301Z,99585.22
2022-10-21T04:39:11.249Z,99589.53
2022-10-21T04:41:38.375Z,99584.22
2022-10-21T04:44:06.900Z,99595.03
2022-10-21T04:46:33.997Z,99602.16
2022-10-21T04:49:01.047Z,99599.34
2022-10-21T04:51:28.395Z,99606.63
2022-10-21T04:53:55.513Z,99608.97
2022-10-21T04:56:22.836Z,99600.66
2022-10-21T04:58:52.911Z,99597.00
2022-10-21T05:01:25.410Z,99594.34
2022-10-21T05:03:54.458Z,99599.13
2022-10-21T05:06:21.370Z,99598.81
2022-10-21T05:08:48.339Z,99600.13
2022-10-21T05:11:15.408Z,99602.44
2022-10-21T05:13:42.349Z,99599.13
2022-10-21T05:16:09.411Z,99591.81
2022-10-21T05:18:36.511Z,99589.81
2022-10-21T05:21:06.117Z,99596.97
2022-10-21T05:23:33.122Z,99607.25
2022-10-21T05:26:00.098Z,99610.72
2022-10-21T05:28:26.968Z,99603.06
2022-10-21T05:30:53.911Z,99602.75
2022-10-21T05:33:20.927Z,99598.25
2022-10-21T05:36:01.003Z,99606.56
2022-10-21T05:38:31.458Z,99608.09
2022-10-21T05:40:59.076Z,99614.03
2022-10-21T05:43:26.280Z,99621.03
2022-10-21T05:45:56.872Z,99618.72
2022-10-21T05:48:25.428Z,99618.84
2022-10-21T05:50:54.219Z,99622.69
2022-10-21T05:53:23.971Z,99628.00
2022-10-21T05:56:08.069Z,99634.81
2022-10-21T05:58:35.778Z,99637.47
2022-10-21T06:01:02.954Z,99626.16
2022-10-21T06:03:32.544Z,99626.84
2022-10-21T06:06:01.628Z,99628.47
2022-10-21T06:08:29.272Z,99632.16
2022-10-21T06:11:15.911Z,99619.47
2022-10-21T06:13:43.205Z,99623.31
2022-10-21T06:16:11.373Z,99630.28
2022-10-21T06:18:39.054Z,99624.63
2022-10-21T06:21:06.400Z,99626.78
2022-10-21T06:23:33.675Z,99628.22
2022-10-21T06:26:05.617Z,99623.09
2022-10-21T06:28:36.701Z,99620.91
2022-10-21T06:31:04.505Z,99624.03
2022-10-21T06:33:31.840Z,99626.28
2022-10-21T06:36:04.512Z,99631.91
2022-10-21T06:38:33.233Z,99636.72
2022-10-21T06:41:09.079Z,99639.38
2022-10-21T06:43:39.333Z,99641.03
2022-10-21T06:46:08.300Z,99631.53
2022-10-21T06:48:35.644Z,99631.66
2022-10-21T06:51:07.410Z,99635.63
2022-10-21T06:53:38.233Z,99648.66
2022-10-21T06:56:16.559Z,99644.84
2022-10-21T06:59:03.215Z,99648.19
2022-10-21T07:01:55.327Z,99636.06
2022-10-21T07:04:20.276Z,99639.53
2022-10-21T07:06:49.239Z,99633.84
2022-10-21T07:09:16.721Z,99636.69
2022-10-21T07:11:49.988Z,99647.69
2022-10-21T07:14:16.959Z,99635.69
2022-10-21T07:16:43.901Z,99632.63
2022-10-21T07:19:12.509Z,99638.72
2022-10-21T07:21:40.152Z,99635.50
2022-10-21T07:24:07.270Z,99629.81
2022-10-21T07:26:35.003Z,99628.25
2022-10-21T07:29:02.299Z,99637.38
2022-10-21T07:31:32.453Z,99628.09
2022-10-21T07:36:38.605Z,99619.91
2022-10-21T07:39:08.969Z,99615.97
2022-10-21T07:41:41.580Z,99633.56
2022-10-21T07:44:10.179Z,99621.81
2022-10-21T07:46:38.495Z,99628.63
2022-10-21T07:49:05.667Z,99619.13
2022-10-21T07:51:32.916Z,99621.16
2022-10-21T07:54:01.016Z,99625.66
2022-10-21T07:56:39.599Z,99626.47
2022-10-21T07:59:12.803Z,99636.41
2022-10-21T08:01:45.218Z,99635.53
2022-10-21T08:04:19.588Z,99642.16
2022-10-21T08:06:50.237Z,99629.66
2022-10-21T08:09:17.694Z,99639.63
2022-10-21T08:11:45.089Z,99636.53
2022-10-21T08:14:15.093Z,99634.88
2022-10-21T08:16:45.725Z,99637.31
2022-10-21T08:19:21.413Z,99635.09
2022-10-21T08:21:51.211Z,99632.97
2022-10-21T08:24:18.170Z,99637.03
2022-10-21T08:26:45.189Z,99622.22
2022-10-21T08:29:12.105Z,99629.59
2022-10-21T08:31:39.780Z,99631.00
2022-10-21T08:34:06.768Z,99633.13
2022-10-21T08:36:33.730Z,99621.25
2022-10-21T08:39:03.551Z,99633.69
2022-10-21T08:41:30.643Z,99631.56
2022-10-21T08:44:10.589Z,99622.75
2022-10-21T08:46:50.219Z,99613.09
2022-10-21T08:49:27.328Z,99618.44
2022-10-21T08:52:06.798Z,99614.41
2022-10-21T08:54:55.081Z,99609.50
2022-10-21T08:57:24.852Z,99612.81
2022-10-21T08:59:51.871Z,99615.50
2022-10-21T09:02:32.814Z,99615.38
2022-10-21T09:05:41.310Z,99608.84
2022-10-21T09:08:15.018Z,99622.72
2022-10-21T09:11:09.601Z,99617.00
2022-10-21T09:13:56.965Z,99618.72
2022-10-21T09:16:57.166Z,99626.38
2022-10-21T09:19:45.161Z,99622.81
2022-10-21T09:22:35.841Z,99618.94
2022-10-21T09:25:25.923Z,99621.81
2022-10-21T09:27:57.422Z,99625.56
2022-10-21T09:30:24.924Z,99626.06
2022-10-21T09:33:01.381Z,99613.44
2022-10-21T09:35:36.196Z,99622.19
2022-10-21T09:38:20.327Z,99629.16
2022-10-21T09:40:51.344Z,99644.09
2022-10-21T09:43:24.901Z,99641.97
2022-10-21T09:45:52.414Z,99637.56
2022-10-21T09:48:19.889Z,99631.50
2022-10-21T09:50:55.741Z,99629.44
2022-10-21T09:53:26.695Z,99626.78
2022-10-21T09:56:06.603Z,99620.88
2022-10-21T09:58:39.107Z,99628.72
2022-10-21T10:01:06.705Z,99627.97
2022-10-21T10:03:45.835Z,99624.91
2022-10-21T10:06:15.636Z,99617.38
2022-10-21T10:08:44.755Z,99620.78
2022-10-21T10:11:18.888Z,99618.75
2022-10-21T10:13:55.603Z,99621.44
2022-10-21T10:16:35.821Z,99619.63
2022-10-21T10:19:26.868Z,99626.88
2022-10-21T10:22:14.505Z,99617.78
2022-10-21T10:24:47.548Z,99613.53
2022-10-21T10:27:30.525Z,99609.09
2022-10-21T10:30:00.073Z,99617.09
2022-10-21T10:32:32.908Z,99610.72
2022-10-21T10:35:17.808Z,99605.69
2022-10-21T10:37:49.937Z,99609.94
2022-10-21T10:40:29.115Z,99615.47
2022-10-21T10:43:03.937Z,99611.41
2022-10-21T10:45:31.218Z,99612.88
2022-10-21T10:48:00.784Z,99601.00
2022-10-21T10:50:45.941Z,99593.44
2022-10-21T10:53:50.040Z,99595.44
2022-10-21T10:56:30.216Z,99578.25
2022-10-21T10:59:27.271Z,99581.25
2022-10-21T11:02:09.944Z,99586.19
2022-10-21T11:04:56.484Z,99582.22
2022-10-21T11:07:43.956Z,99580.38
2022-10-21T11:10:21.813Z,99587.63
2022-10-21T11:12:51.629Z,99589.16
2022-10-21T11:15:19.498Z,99589.41
2022-10-21T11:18:17.122Z,99593.13
2022-10-21T11:21:15.792Z,99594.38
2022-10-21T11:24:00.927Z,99589.03
2022-10-21T11:26:37.252Z,99589.16
2022-10-21T11:29:34.796Z,99584.53
2022-10-21T11:32:12.728Z,99589.03
2022-10-21T11:34:51.139Z,99582.47
2022-10-21T11:37:22.509Z,99579.78
2022-10-21T11:39:52.404Z,99578.47
2022-10-21T11:45:32.420Z,99567.78
2022-10-21T11:48:26.880Z,99555.72
2022-10-21T11:51:16.997Z,99559.81
2022-10-21T11:53:51.962Z,99572.16
2022-10-21T11:56:45.753Z,99567.28
2022-10-21T11:59:56.653Z,99558.03
2022-10-21T12:02:44.817Z,99568.34
2022-10-21T12:05:36.289Z,99570.19
2022-10-21T12:08:14.033Z,99564.00
2022-10-21T12:10:51.949Z,99565.59
2022-10-21T12:13:25.197Z,99570.69
2022-10-21T12:15:56.309Z,99560.56
2022-10-21T12:18:28.252Z,99567.97
2022-10-21T12:20:56.968Z,99554.00
2022-10-21T12:23:26.119Z,99552.38
2022-10-21T12:26:10.504Z,99548.88
2022-10-21T12:28:43.424Z,99559.38
2022-10-21T12:31:28.971Z,99552.00
2022-10-21T12:33:56.438Z,99557.78
2022-10-21T12:36:23.583Z,99549.97
2022-10-21T12:38:54.959Z,99539.66
2022-10-21T12:41:25.019Z,99543.56
2022-10-21T12:44:01.090Z,99555.63
2022-10-21T12:46:40.625Z,99548.41
2022-10-21T12:49:10.802Z,99544.16
2022-10-21T12:51:40.193Z,99544.53
2022-10-21T12:54:15.423Z,99547.00
2022-10-21T12:57:01.907Z,99546.00
2022-10-21T12:59:35.108Z,99547.78
2022-10-21T13:02:05.263Z,99550.63
2022-10-21T13:04:32.208Z,99545.03
2022-10-21T13:07:17.832Z,99549.19
2022-10-21T13:09:54.056Z,99547.13
2022-10-21T13:12:26.030Z,99547.13
2022-10-21T13:14:54.235Z,99540.59
2022-10-21T13:17:21.073Z,99537.91
2022-10-21T13:19:53.054Z,99531.91
2022-10-21T13:22:22.795Z,99543.81
2022-10-21T13:24:50.203Z,99544.59
2022-10-21T13:27:30.155Z,99537.41
2022-10-21T13:29:57.593Z,99540.88
2022-10-21T13:32:27.421Z,99545.38
2022-10-21T13:35:30.379Z,99551.34
2022-10-21T13:38:01.551Z,99549.44
2022-10-21T13:40:44.462Z,99549.84
2022-10-21T13:43:15.721Z,99551.63
2022-10-21T13:45:50.742Z,99549.97
2022-10-21T13:48:18.909Z,99557.59
2022-10-21T13:50:47.986Z,99558.41
2022-10-21T13:53:22.053Z,99560.06
2022-10-21T13:55:58.653Z,99555.50
2022-10-21T13:58:26.895Z,99568.84
2022-10-21T14:00:57.920Z,99569.69
2022-10-21T14:03:31.654Z,99569.03
2022-10-21T14:06:02.797Z,99577.88
2022-10-21T14:08:33.324Z,99581.81
2022-10-21T14:11:14.793Z,99580.94
2022-10-21T14:13:42.213Z,99580.09
2022-10-21T14:16:09.555Z,99579.66
2022-10-21T14:18:48.834Z,99585.84
2022-10-21T14:21:20.973Z,99582.13
2022-10-21T14:23:48.319Z,99588.50
2022-10-21T14:26:15.596Z,99599.00
2022-10-21T14:28:45.667Z,99599.63
2022-10-21T14:31:16.866Z,99602.31
2022-10-21T14:33:47.200Z,99612.34
2022-10-21T14:36:16.215Z,99608.84
2022-10-21T14:39:00.738Z,99608.47
2022-10-21T14:41:41.967Z,99599.63
2022-10-21T14:44:19.881Z,99605.78
2022-10-21T14:46:49.308Z,99609.66
2022-10-21T14:49:28.219Z,99601.47
2022-10-21T14:52:00.453Z,99603.50
2022-10-21T14:54:40.396Z,99594.84
2022-10-21T14:57:29.518Z,99596.44
2022-10-21T14:59:56.709Z,99599.66
2022-10-21T15:02:28.496Z,99611.19
2022-10-21T15:05:26.787Z,99604.19
2022-10-21T15:08:19.455Z,99615.34
2022-10-21T15:11:02.485Z,99618.38
2022-10-21T15:13:29.508Z,99623.09
2022-10-21T15:15:58.092Z,99629.06
2022-10-21T15:18:50.413Z,99623.72
2022-10-21T15:21:54.150Z,99610.72
2022-10-21T15:24:29.500Z,99598.31
2022-10-21T15:26:58.551Z,99604.47
2022-10-21T15:29:28.782Z,99605.50
2022-10-21T15:31:57.255Z,99605.41
2022-10-21T15:34:24.521Z,99609.56
2022-10-21T15:36:51.427Z,99624.38
2022-10-21T15:39:18.441Z,99620.50
2022-10-21T15:41:45.704Z,99619.88
2022-10-21T15:44:27.557Z,99631.84
2022-10-21T15:47:00.539Z,99618.84
2022-10-21T15:49:31.841Z,99620.88
2022-10-21T15:51:58.880Z,99625.22
2022-10-21T15:54:25.916Z,99629.91
2022-10-21T15:56:55.010Z,99624.75
2022-10-21T15:59:26.609Z,99622.47
2022-10-21T16:01:54.857Z,99623.22
2022-10-21T16:04:22.664Z,99621.75
2022-10-21T16:06:55.360Z,99621.44
2022-10-21T16:09:28.532Z,99620.09
2022-10-21T16:12:00.719Z,99615.28
2022-10-21T16:14:30.035Z,99620.19
2022-10-21T16:16:58.730Z,99617.97
2022-10-21T16:19:25.724Z,99624.50
2022-10-21T16:21:55.786Z,99624.16
2022-10-21T16:24:23.015Z,99627.28
2022-10-21T16:26:55.676Z,99611.69
2022-10-21T16:29:24.786Z,99606.63
2022-10-21T16:31:56.497Z,99618.16
2022-10-21T16:34:23.417Z,99611.97
2022-10-21T16:36:50.371Z,99621.38
2022-10-21T16:39:20.438Z,99611.34
2022-10-21T16:41:47.442Z,99622.13
2022-10-21T16:44:14.980Z,99620.66
2022-10-21T16:46:49.652Z,99630.69
2022-10-21T16:49:21.402Z,99636.66
2022-10-21T16:51:48.927Z,99635.09
2022-10-21T16:54:16.145Z,99630.03
2022-10-21T16:56:43.260Z,99633.16
2022-10-21T16:59:10.432Z,99640.16
2022-10-21T17:01:37.504Z,99635.53
2022-10-21T17:04:04.731Z,99641.63
2022-10-21T17:06:31.872Z,99635.81
2022-10-21T17:08:59.125Z,99629.38
2022-10-21T17:11:35.886Z,99632.94
2022-10-21T17:14:05.237Z,99623.03
2022-10-21T17:16:32.948Z,99617.22
2022-10-21T17:19:00.213Z,99623.44
2022-10-21T17:21:32.822Z,99630.78
2022-10-21T17:24:01.729Z,99624.63
2022-10-21T17:26:30.268Z,99633.75
2022-10-21T17:28:58.005Z,99624.75
2022-10-21T17:31:27.897Z,99619.13
2022-10-21T17:33:57.633Z,99610.84
2022-10-21T17:36:24.806Z,99608.56
2022-10-21T17:38:52.832Z,99600.56
2022-10-21T17:41:21.669Z,99603.03
2022-10-21T17:43:48.771Z,99600.34
2022-10-21T17:46:24.844Z,99597.31
2022-10-21T17:48:59.556Z,99608.91
2022-10-21T17:51:32.639Z,99591.66
2022-10-21T17:54:04.128Z,99599.44
2022-10-21T17:56:36.903Z,99602.47
2022-10-21T17:59:04.114Z,99608.19
2022-10-21T18:01:31.160Z,99598.72
2022-10-21T18:04:07.553Z,99602.47
2022-10-21T18:06:34.852Z,99613.44
2022-10-21T18:09:06.789Z,99610.78
2022-10-21T18:11:34.437Z,99617.41
2022-10-21T18:14:04.289Z,99624.56
2022-10-21T18:16:31.651Z,99613.44
2022-10-21T18:19:01.902Z,99615.97
2022-10-21T18:21:32.929Z,99621.81
2022-10-21T18:24:03.236Z,99624.47
2022-10-21T18:26:34.029Z,99620.78
2022-10-21T18:29:02.892Z,99624.09
2022-10-21T18:31:33.169Z,99629.06
2022-10-21T18:34:02.598Z,99625.03
2022-10-21T18:36:32.085Z,99630.53
2022-10-21T18:39:04.193Z,99633.50
2022-10-21T18:41:32.834Z,99625.31
2022-10-21T18:44:08.350Z,99630.16
2022-10-21T18:46:44.694Z,99630.00
2022-10-21T18:49:15.425Z,99633.50
2022-10-21T18:51:42.481Z,99632.66
2022-10-21T18:54:12.265Z,99636.81
2022-10-21T18:56:41.231Z,99643.78
2022-10-21T18:59:19.391Z,99635.63
2022-10-21T19:05:33.971Z,99631.47
2022-10-21T19:08:04.445Z,99650.72
2022-10-21T19:10:38.133Z,99642.72
2022-10-21T19:13:13.611Z,99646.84
2022-10-21T19:15:43.753Z,99646.41
2022-10-21T19:18:13.762Z,99647.59
2022-10-21T19:20:47.553Z,99652.94
2022-10-21T19:23:26.280Z,99644.66
2022-10-21T19:26:02.337Z,99649.13
2022-10-21T19:28:33.252Z,99628.06
2022-10-21T19:31:03.598Z,99631.38
2022-10-21T19:33:43.956Z,99653.38
2022-10-21T19:36:18.138Z,99645.34
2022-10-21T19:38:48.047Z,99653.00
2022-10-21T19:41:23.279Z,99648.22
2022-10-21T19:43:54.898Z,99651.81
2022-10-21T19:46:34.031Z,99645.53
2022-10-21T19:49:02.223Z,99666.31
2022-10-21T19:51:33.807Z,99654.06
2022-10-21T19:54:04.689Z,99671.00
2022-10-21T19:56:37.419Z,99670.50
2022-10-21T19:59:05.119Z,99661.53
2022-10-21T20:01:35.235Z,99665.56
2022-10-21T20:04:07.548Z,99677.31
2022-10-21T20:06:36.654Z,99678.00
2022-10-21T20:09:10.663Z,99682.31
2022-10-21T20:11:39.968Z,99665.75
2022-10-21T20:14:08.878Z,99668.50
2022-10-21T20:16:39.471Z,99676.13
2022-10-21T20:19:08.174Z,99667.69
2022-10-21T20:21:36.065Z,99656.66
2022-10-21T20:24:03.345Z,99670.38
2022-10-21T20:29:30.040Z,99676.00
2022-10-21T20:31:59.873Z,99673.63
2022-10-21T20:34:27.088Z,99680.97
2022-10-21T20:36:54.023Z,99672.31
2022-10-21T20:39:23.616Z,99677.50
2022-10-21T20:41:50.724Z,99679.03
2022-10-21T20:44:17.724Z,99678.84
2022-10-21T20:46:48.312Z,99678.19
2022-10-21T20:49:15.666Z,99684.38
2022-10-21T20:51:43.037Z,99680.31
2022-10-21T20:54:14.169Z,99678.97
2022-10-21T20:56:43.437Z,99676.75
2022-10-21T20:59:17.734Z,99681.53
2022-10-21T21:01:49.708Z,99671.69
2022-10-21T21:04:17.775Z,99683.41
2022-10-21T21:06:47.226Z,99677.78
2022-10-21T21:09:37.718Z,99677.94
2022-10-21T21:12:03.900Z,99680.00
2022-10-21T21:14:35.983Z,99678.31
2022-10-21T21:17:04.839Z,99677.00
2022-10-21T21:19:32.535Z,99678.41
2022-10-21T21:21:59.438Z,99690.25
2022-10-21T21:24:26.716Z,99681.44
2022-10-21T21:26:56.444Z,99685.56
2022-10-21T21:29:28.279Z,99681.88
2022-10-21T21:31:57.760Z,99688.03
2022-10-21T21:34:24.851Z,99691.72
2022-10-21T21:36:51.712Z,99698.06
2022-10-21T21:39:18.571Z,99692.72
2022-10-21T21:41:45.834Z,99701.56
2022-10-21T21:44:12.754Z,99704.06
2022-10-21T21:46:40.460Z,99697.72
2022-10-21T21:49:07.504Z,99701.66
2022-10-21T21:51:36.053Z,99698.00
2022-10-21T21:54:04.462Z,99688.97
2022-10-21T21:56:32.844Z,99685.31
2022-10-21T21:58:59.766Z,99688.31
2022-10-21T22:01:28.730Z,99692.03
2022-10-21T22:03:56.497Z,99687.22
2022-10-21T22:08:59.612Z,99690.50
2022-10-21T22:11:29.622Z,99683.31
2022-10-21T22:13:56.538Z,99689.31
2022-10-21T22:16:25.901Z,99687.09
2022-10-21T22:18:54.160Z,99696.25
2022-10-21T22:21:21.400Z,99697.72
2022-10-21T22:23:49.267Z,99697.34
2022-10-21T22:26:18.302Z,99700.69
2022-10-21T22:28:45.788Z,99690.81
2022-10-21T22:31:15.318Z,99692.31
2022-10-21T22:36:11.452Z,99691.22
2022-10-21T22:38:38.460Z,99692.06
2022-10-21T22:41:09.840Z,99699.56
2022-10-21T22:43:38.425Z,99698.59
2022-10-21T22:46:21.580Z,99696.75
2022-10-21T22:48:49.013Z,99701.25
2022-10-21T22:51:16.091Z,99701.06
2022-10-21T22:53:42.976Z,99706.38
2022-10-21T22:56:11.881Z,99696.38
2022-10-21T22:58:38.859Z,99703.00
2022-10-21T23:01:07.958Z,99699.53
2022-10-21T23:03:35.091Z,99693.25
2022-10-21T23:06:02.547Z,99693.41
2022-10-21T23:08:29.471Z,99703.25
2022-10-21T23:10:56.979Z,99691.13
2022-10-21T23:13:23.923Z,99691.56
2022-10-21T23:15:50.839Z,99687.09
2022-10-21T23:18:19.637Z,99683.94
2022-10-21T23:20:46.616Z,99695.91
2022-10-21T23:23:13.924Z,99694.53
2022-10-21T23:25:40.959Z,99695.38
2022-10-21T23:28:09.974Z,99695.38
2022-10-21T23:30:38.175Z,99693.31
2022-10-21T23:33:05.180Z,99695.00
2022-10-21T23:35:32.528Z,99692.63
2022-10-21T23:37:59.570Z,99687.44
2022-10-21T23:40:27.069Z,99685.69
2022-10-21T23:42:54.172Z,99687.16
2022-10-21T23:45:22.034Z,99682.31
2022-10-21T23:47:49.449Z,99682.66
2022-10-21T23:50:16.828Z,99686.81
2022-10-21T23:52:43.753Z,99688.19
2022-10-21T23:55:10.766Z,99683.22
2022-10-21T23:57:39.058Z,99681.84
